Powellville, Maryland
Current Conditions -  °F | °C
As of 7:54 PM on Monday 22 Dec 2014 (Local Time) from KSBY Reporting Station
Broken Clouds Broken Clouds  
Wind Chill: 43°   Ceiling: 10000
Heat Index: 47°   Visibility: 7mi
Dew Point: 43°   Wind: 8mph
Humidity: 86%   Direction: 50°NE
Pressure: 30.08"   Gusts: NA
Location:  38.33°N, 75.38°W
Report Text: KSBY 230054Z 05007KT 7SM FEW055 BKN100 08/06 A3008 RMK AO2 SLP189 T00830061
Loading
Personal Weather Stations






























Interactive Weather Map New forecast layout! Learn more

10-Day Weather Forecast

Advertisements
Track Severe Weather on mobile